createdAt,value
2023-03-07T00:04:00.589Z,3.60
2023-03-07T00:08:07.858Z,3.60
2023-03-07T00:12:12.239Z,3.60
2023-03-07T00:16:18.037Z,3.60
2023-03-07T00:20:24.192Z,3.60
2023-03-07T00:24:27.246Z,3.70
2023-03-07T00:28:30.589Z,3.70
2023-03-07T00:32:37.520Z,3.70
2023-03-07T00:36:40.618Z,3.70
2023-03-07T00:40:50.784Z,3.70
2023-03-07T00:44:54.367Z,3.70
2023-03-07T00:49:00.326Z,3.70
2023-03-07T00:53:03.497Z,3.60
2023-03-07T00:57:06.626Z,3.70
2023-03-07T01:01:10.567Z,3.70
2023-03-07T01:05:15.046Z,3.70
2023-03-07T01:09:20.714Z,3.60
2023-03-07T01:13:23.832Z,3.60
2023-03-07T01:17:33.685Z,3.60
2023-03-07T01:21:39.763Z,3.70
2023-03-07T01:25:45.771Z,3.60
2023-03-07T01:29:49.838Z,3.60
2023-03-07T01:33:59.417Z,3.60
2023-03-07T01:38:03.866Z,3.60
2023-03-07T01:42:07.326Z,3.60
2023-03-07T01:46:45.727Z,3.60
2023-03-07T01:50:50.037Z,3.60
2023-03-07T01:55:00.733Z,3.60
2023-03-07T01:59:06.990Z,3.60
2023-03-07T02:03:21.978Z,3.60
2023-03-07T02:07:28.648Z,3.60
2023-03-07T02:11:33.422Z,3.60
2023-03-07T02:15:36.970Z,3.60
2023-03-07T02:19:52.287Z,3.50
2023-03-07T02:24:03.133Z,3.50
2023-03-07T02:28:11.044Z,3.50
2023-03-07T02:32:16.173Z,3.40
2023-03-07T02:36:26.264Z,3.40
2023-03-07T02:40:31.545Z,3.30
2023-03-07T02:44:37.615Z,3.30
2023-03-07T02:48:47.112Z,3.30
2023-03-07T02:52:51.201Z,3.20
2023-03-07T02:56:59.083Z,3.20
2023-03-07T03:01:04.979Z,3.20
2023-03-07T03:05:08.867Z,3.20
2023-03-07T03:09:11.897Z,3.20
2023-03-07T03:13:15.242Z,3.10
2023-03-07T03:17:19.676Z,3.10
2023-03-07T03:21:25.114Z,3.10
2023-03-07T03:25:28.411Z,3.10
2023-03-07T03:29:33.719Z,3.10
2023-03-07T03:33:39.504Z,3.00
2023-03-07T03:37:42.793Z,3.00
2023-03-07T03:41:48.172Z,3.00
2023-03-07T03:45:56.229Z,3.00
2023-03-07T03:50:00.739Z,3.00
2023-03-07T03:54:04.056Z,3.00
2023-03-07T03:58:07.258Z,3.00
2023-03-07T04:02:10.870Z,3.00
2023-03-07T04:06:19.361Z,3.00
2023-03-07T04:10:24.233Z,3.00
2023-03-07T04:14:30.206Z,2.90
2023-03-07T04:18:33.434Z,2.90
2023-03-07T04:22:38.166Z,2.90
2023-03-07T04:26:41.657Z,2.80
2023-03-07T04:30:44.978Z,2.80
2023-03-07T04:34:53.790Z,2.90
2023-03-07T04:38:58.238Z,2.90
2023-03-07T04:43:06.088Z,2.90
2023-03-07T04:47:11.525Z,3.00
2023-03-07T04:51:19.601Z,3.10
2023-03-07T04:55:26.297Z,3.20
2023-03-07T04:59:35.266Z,3.20
2023-03-07T05:03:38.399Z,3.30
2023-03-07T05:07:44.559Z,3.40
2023-03-07T05:11:49.242Z,3.40
2023-03-07T05:15:53.701Z,3.40
2023-03-07T05:19:56.839Z,3.40
2023-03-07T05:23:59.977Z,3.40
2023-03-07T05:28:04.960Z,3.20
2023-03-07T05:32:13.828Z,3.10
2023-03-07T05:36:16.943Z,3.10
2023-03-07T05:40:20.807Z,3.00
2023-03-07T05:44:25.247Z,3.10
2023-03-07T05:48:28.755Z,3.10
2023-03-07T05:52:33.155Z,3.10
2023-03-07T05:56:40.833Z,3.10
2023-03-07T06:00:46.614Z,3.10
2023-03-07T06:04:50.089Z,3.10
2023-03-07T06:08:53.618Z,3.20
2023-03-07T06:12:59.388Z,3.20
2023-03-07T06:17:04.562Z,3.20
2023-03-07T06:21:11.880Z,3.20
2023-03-07T06:25:21.803Z,3.30
2023-03-07T06:29:29.497Z,3.30
2023-03-07T06:33:37.123Z,3.30
2023-03-07T06:37:41.715Z,3.30
2023-03-07T06:41:45.006Z,3.40
2023-03-07T06:45:49.512Z,3.50
2023-03-07T06:49:55.761Z,3.60
2023-03-07T06:53:58.979Z,3.60
2023-03-07T06:58:02.039Z,3.70
2023-03-07T07:02:10.946Z,3.80
2023-03-07T07:06:15.487Z,3.90
2023-03-07T07:10:22.238Z,4.00
2023-03-07T07:14:25.737Z,4.10
2023-03-07T07:18:30.199Z,4.20
2023-03-07T07:22:40.363Z,4.30
2023-03-07T07:26:45.848Z,4.40
2023-03-07T07:30:49.066Z,4.50
2023-03-07T07:34:52.226Z,4.60
2023-03-07T07:38:57.816Z,4.70
2023-03-07T07:43:01.117Z,4.80
2023-03-07T07:47:07.503Z,4.80
2023-03-07T07:51:11.454Z,4.80
2023-03-07T07:55:16.553Z,4.80
2023-03-07T07:59:28.968Z,4.80
2023-03-07T08:03:34.468Z,4.90
2023-03-07T08:07:40.354Z,4.90
2023-03-07T08:11:46.448Z,4.90
2023-03-07T08:15:49.654Z,4.90
2023-03-07T08:19:52.978Z,5.00
2023-03-07T08:23:56.533Z,5.20
2023-03-07T08:28:03.489Z,5.20
2023-03-07T08:32:11.659Z,5.30
2023-03-07T08:36:15.261Z,5.40
2023-03-07T08:40:22.637Z,5.50
2023-03-07T08:44:27.158Z,5.60
2023-03-07T08:48:33.229Z,5.70
2023-03-07T08:52:36.155Z,5.70
2023-03-07T08:56:39.198Z,5.70
2023-03-07T09:00:43.426Z,5.70
2023-03-07T09:04:46.771Z,5.80
2023-03-07T09:08:50.463Z,5.80
2023-03-07T09:12:53.278Z,5.90
2023-03-07T09:16:58.874Z,6.00
2023-03-07T09:21:01.733Z,6.10
2023-03-07T09:25:05.660Z,6.20
2023-03-07T09:29:11.260Z,6.30
2023-03-07T09:33:15.710Z,6.70
2023-03-07T09:37:21.842Z,7.00
2023-03-07T09:41:52.213Z,7.10
2023-03-07T09:46:09.797Z,7.20
2023-03-07T09:50:19.145Z,7.60
2023-03-07T09:54:25.658Z,7.80
2023-03-07T09:58:28.875Z,8.20
2023-03-07T10:02:36.280Z,8.30
2023-03-07T10:06:42.604Z,8.20
2023-03-07T10:10:53.937Z,8.60
2023-03-07T10:15:21.254Z,8.60
2023-03-07T10:19:32.553Z,8.60
2023-03-07T10:23:58.377Z,8.50
2023-03-07T10:28:10.761Z,8.60
2023-03-07T10:32:33.073Z,8.70
2023-03-07T10:36:42.546Z,8.70
2023-03-07T10:40:51.425Z,8.80
2023-03-07T10:44:58.216Z,8.80
2023-03-07T10:49:11.620Z,9.00
2023-03-07T10:53:26.704Z,9.20
2023-03-07T10:57:32.386Z,9.10
2023-03-07T11:01:39.074Z,9.20
2023-03-07T11:05:49.139Z,9.00
2023-03-07T11:09:52.262Z,9.20
2023-03-07T11:14:14.495Z,9.40
2023-03-07T11:18:30.360Z,9.60
2023-03-07T11:22:36.671Z,9.60
2023-03-07T11:26:41.359Z,9.40
2023-03-07T11:30:51.078Z,9.30
2023-03-07T11:35:02.584Z,9.20
2023-03-07T11:39:14.861Z,9.10
2023-03-07T11:43:22.988Z,9.20
2023-03-07T11:47:50.065Z,9.10
2023-03-07T11:52:09.753Z,8.80
2023-03-07T11:56:32.751Z,8.50
2023-03-07T12:00:44.058Z,8.40
2023-03-07T12:05:12.277Z,8.40
2023-03-07T12:09:30.069Z,8.30
2023-03-07T12:13:54.775Z,8.20
2023-03-07T12:18:37.039Z,8.40
2023-03-07T12:22:52.972Z,8.70
2023-03-07T12:27:02.874Z,8.80
2023-03-07T12:31:11.126Z,8.80
2023-03-07T12:35:24.531Z,8.90
2023-03-07T12:39:33.101Z,9.00
2023-03-07T12:43:41.910Z,9.10
2023-03-07T12:47:56.883Z,9.30
2023-03-07T12:52:02.839Z,9.30
2023-03-07T12:56:15.358Z,9.10
2023-03-07T13:00:23.783Z,9.20
2023-03-07T13:04:31.695Z,9.20
2023-03-07T13:08:36.948Z,9.30
2023-03-07T13:12:41.075Z,9.40
2023-03-07T13:16:45.986Z,9.40
2023-03-07T13:21:08.537Z,9.30
2023-03-07T13:25:48.063Z,9.10
2023-03-07T13:30:19.175Z,8.90
2023-03-07T13:34:49.759Z,8.90
2023-03-07T13:38:52.869Z,8.80
2023-03-07T13:42:58.232Z,8.70
2023-03-07T13:47:02.881Z,8.70
2023-03-07T13:51:09.545Z,8.60
2023-03-07T13:55:28.314Z,8.40
2023-03-07T13:59:34.597Z,8.30
2023-03-07T14:03:43.106Z,8.20
2023-03-07T14:07:51.512Z,8.10
2023-03-07T14:12:08.131Z,8.10
2023-03-07T14:16:49.525Z,8.30
2023-03-07T14:21:01.060Z,8.70
2023-03-07T14:25:19.007Z,8.60
2023-03-07T14:29:29.114Z,8.50
2023-03-07T14:33:36.149Z,8.60
2023-03-07T14:37:43.343Z,8.60
2023-03-07T14:41:56.479Z,8.60
2023-03-07T14:46:05.649Z,8.50
2023-03-07T14:50:15.497Z,8.50
2023-03-07T14:54:26.311Z,8.80
2023-03-07T14:58:32.290Z,8.80
2023-03-07T15:02:35.171Z,8.70
2023-03-07T15:06:45.340Z,8.40
2023-03-07T15:10:54.944Z,8.30
2023-03-07T15:15:04.026Z,8.10
2023-03-07T15:19:15.001Z,8.10
2023-03-07T15:23:27.601Z,8.00
2023-03-07T15:27:33.188Z,8.10
2023-03-07T15:31:52.332Z,8.10
2023-03-07T15:36:18.046Z,8.00
2023-03-07T15:40:27.724Z,7.90
2023-03-07T15:44:33.046Z,7.80
2023-03-07T15:48:43.423Z,7.70
2023-03-07T15:52:56.638Z,7.50
2023-03-07T15:57:05.909Z,7.50
2023-03-07T16:01:20.699Z,7.40
2023-03-07T16:05:40.193Z,7.30
2023-03-07T16:09:44.222Z,7.20
2023-03-07T16:13:47.114Z,7.10
2023-03-07T16:17:55.079Z,6.90
2023-03-07T16:21:58.101Z,6.80
2023-03-07T16:26:04.271Z,6.70
2023-03-07T16:30:16.889Z,6.60
2023-03-07T16:34:22.863Z,6.40
2023-03-07T16:38:31.055Z,6.30
2023-03-07T16:42:48.070Z,6.20
2023-03-07T16:46:56.922Z,6.00
2023-03-07T16:51:04.306Z,5.90
2023-03-07T16:55:14.437Z,5.80
2023-03-07T16:59:18.573Z,5.70
2023-03-07T17:03:24.383Z,5.60
2023-03-07T17:07:28.779Z,5.50
2023-03-07T17:11:32.324Z,5.40
2023-03-07T17:15:36.593Z,5.30
2023-03-07T17:19:47.049Z,5.20
2023-03-07T17:23:53.040Z,5.10
2023-03-07T17:28:03.413Z,5.00
2023-03-07T17:32:07.333Z,4.90
2023-03-07T17:36:10.937Z,4.80
2023-03-07T17:40:16.893Z,4.70
2023-03-07T17:44:19.904Z,4.70
2023-03-07T17:48:22.691Z,4.70
2023-03-07T17:52:27.643Z,4.60
2023-03-07T17:56:31.808Z,4.60
2023-03-07T18:00:34.604Z,4.60
2023-03-07T18:04:37.428Z,4.50
2023-03-07T18:08:40.770Z,4.40
2023-03-07T18:12:46.134Z,4.40
2023-03-07T18:16:54.823Z,4.40
2023-03-07T18:20:58.880Z,4.40
2023-03-07T18:25:01.708Z,4.40
2023-03-07T18:29:07.798Z,4.40
2023-03-07T18:33:14.688Z,4.40
2023-03-07T18:37:17.699Z,4.40
2023-03-07T18:41:24.656Z,4.40
2023-03-07T18:45:32.060Z,4.40
2023-03-07T18:49:34.856Z,4.40
2023-03-07T18:53:38.702Z,4.40
2023-03-07T18:57:42.734Z,4.40
2023-03-07T19:01:50.172Z,4.40
2023-03-07T19:05:53.137Z,4.20
2023-03-07T19:09:56.574Z,4.10
2023-03-07T19:14:04.694Z,4.20
2023-03-07T19:18:11.314Z,4.20
2023-03-07T19:22:21.640Z,4.20
2023-03-07T19:26:27.764Z,4.10
2023-03-07T19:30:33.090Z,4.00
2023-03-07T19:34:41.873Z,3.80
2023-03-07T19:38:54.922Z,3.80
2023-03-07T19:43:09.799Z,3.80
2023-03-07T19:47:15.631Z,3.80
2023-03-07T19:51:24.437Z,3.80
2023-03-07T19:55:34.124Z,3.80
2023-03-07T19:59:39.696Z,3.80
2023-03-07T20:03:50.739Z,3.80
2023-03-07T20:08:17.580Z,3.80
2023-03-07T20:12:22.389Z,3.80
2023-03-07T20:16:32.200Z,3.80
2023-03-07T20:20:42.007Z,3.80
2023-03-07T20:25:02.156Z,3.90
2023-03-07T20:29:10.242Z,4.00
2023-03-07T20:33:14.847Z,4.10
2023-03-07T20:37:21.589Z,4.20
2023-03-07T20:41:32.343Z,4.40
2023-03-07T20:45:41.150Z,4.50
2023-03-07T20:54:57.164Z,4.60
2023-03-07T20:59:06.778Z,4.60
2023-03-07T21:03:13.833Z,4.60
2023-03-07T21:07:17.082Z,4.60
2023-03-07T21:11:21.884Z,4.70
2023-03-07T21:15:28.931Z,4.70
2023-03-07T21:19:37.569Z,4.70
2023-03-07T21:23:40.798Z,4.70
2023-03-07T21:27:47.285Z,4.70
2023-03-07T21:31:54.239Z,4.70
2023-03-07T21:35:58.178Z,4.70
2023-03-07T21:40:01.449Z,4.60
2023-03-07T21:44:06.194Z,4.60
2023-03-07T21:48:13.665Z,4.50
2023-03-07T21:52:18.059Z,4.40
2023-03-07T21:56:23.944Z,4.40
2023-03-07T22:00:27.577Z,4.40
2023-03-07T22:04:32.142Z,4.40
2023-03-07T22:08:36.586Z,4.40
2023-03-07T22:12:39.636Z,4.40
2023-03-07T22:16:45.311Z,4.40
2023-03-07T22:20:52.486Z,4.40
2023-03-07T22:24:55.539Z,4.30
2023-03-07T22:28:59.157Z,4.30
2023-03-07T22:33:04.608Z,4.30
2023-03-07T22:37:09.115Z,4.30
2023-03-07T22:41:13.718Z,4.30
2023-03-07T22:45:19.789Z,4.30
2023-03-07T22:49:26.785Z,4.30
2023-03-07T22:53:34.314Z,4.20
2023-03-07T22:57:38.788Z,4.20
2023-03-07T23:01:45.076Z,4.20
2023-03-07T23:05:50.142Z,4.20
2023-03-07T23:09:55.547Z,4.30
2023-03-07T23:14:01.499Z,4.40
2023-03-07T23:18:21.143Z,4.40
2023-03-07T23:22:24.195Z,4.50
2023-03-07T23:26:30.606Z,4.60
2023-03-07T23:30:36.818Z,4.60
2023-03-07T23:34:42.216Z,4.70
2023-03-07T23:38:46.442Z,4.80
2023-03-07T23:42:52.797Z,4.80
2023-03-07T23:46:55.793Z,4.80
2023-03-07T23:51:00.215Z,4.80
2023-03-07T23:55:03.308Z,4.90
2023-03-07T23:59:10.513Z,4.90
